sensor_id;sensor_type;location;lat;lon;timestamp;pressure;altitude;pressure_sealevel;temperature;humidity
24336;BME280;75016;52.400;16.880;2023-12-22T00:00:54;97238.63;;;5.40;88.72
24336;BME280;75016;52.400;16.880;2023-12-22T00:03:37;97236.50;;;5.35;87.56
24336;BME280;75016;52.400;16.880;2023-12-22T00:06:03;97225.24;;;5.35;88.67
24336;BME280;75016;52.400;16.880;2023-12-22T00:08:30;97232.48;;;5.35;89.93
24336;BME280;75016;52.400;16.880;2023-12-22T00:10:57;97232.25;;;5.34;89.33
24336;BME280;75016;52.400;16.880;2023-12-22T00:13:23;97248.92;;;5.35;90.93
24336;BME280;75016;52.400;16.880;2023-12-22T00:15:50;97261.16;;;5.33;89.31
24336;BME280;75016;52.400;16.880;2023-12-22T00:18:16;97258.46;;;5.27;88.68
24336;BME280;75016;52.400;16.880;2023-12-22T00:20:43;97256.05;;;5.23;89.40
24336;BME280;75016;52.400;16.880;2023-12-22T00:23:09;97259.54;;;5.15;89.56
24336;BME280;75016;52.400;16.880;2023-12-22T00:25:36;97254.84;;;5.08;90.21
24336;BME280;75016;52.400;16.880;2023-12-22T00:28:02;97269.03;;;5.04;89.77
24336;BME280;75016;52.400;16.880;2023-12-22T00:30:29;97243.44;;;5.05;91.29
24336;BME280;75016;52.400;16.880;2023-12-22T00:32:56;97248.02;;;5.10;91.76
24336;BME280;75016;52.400;16.880;2023-12-22T00:35:22;97244.42;;;5.10;90.90
24336;BME280;75016;52.400;16.880;2023-12-22T00:37:49;97241.60;;;5.05;89.37
24336;BME280;75016;52.400;16.880;2023-12-22T00:40:15;97250.61;;;5.01;88.19
24336;BME280;75016;52.400;16.880;2023-12-22T00:42:42;97246.66;;;5.04;88.08
24336;BME280;75016;52.400;16.880;2023-12-22T00:45:09;97254.86;;;5.05;86.86
24336;BME280;75016;52.400;16.880;2023-12-22T00:47:35;97249.34;;;5.05;86.96
24336;BME280;75016;52.400;16.880;2023-12-22T00:50:03;97250.73;;;5.05;86.57
24336;BME280;75016;52.400;16.880;2023-12-22T00:52:31;97254.66;;;5.08;85.59
24336;BME280;75016;52.400;16.880;2023-12-22T00:54:58;97269.47;;;5.10;83.75
24336;BME280;75016;52.400;16.880;2023-12-22T00:57:24;97254.80;;;5.14;84.60
24336;BME280;75016;52.400;16.880;2023-12-22T00:59:51;97258.55;;;5.18;83.57
24336;BME280;75016;52.400;16.880;2023-12-22T01:02:18;97256.91;;;5.22;83.34
24336;BME280;75016;52.400;16.880;2023-12-22T01:04:44;97258.52;;;5.25;82.30
24336;BME280;75016;52.400;16.880;2023-12-22T01:07:11;97266.73;;;5.25;81.38
24336;BME280;75016;52.400;16.880;2023-12-22T01:09:38;97263.44;;;5.23;80.09
24336;BME280;75016;52.400;16.880;2023-12-22T01:12:04;97280.98;;;5.25;81.19
24336;BME280;75016;52.400;16.880;2023-12-22T01:14:32;97269.54;;;5.24;80.15
24336;BME280;75016;52.400;16.880;2023-12-22T01:16:59;97256.35;;;5.22;80.47
24336;BME280;75016;52.400;16.880;2023-12-22T01:19:27;97255.99;;;5.22;81.22
24336;BME280;75016;52.400;16.880;2023-12-22T01:21:53;97261.30;;;5.19;80.38
24336;BME280;75016;52.400;16.880;2023-12-22T01:24:20;97275.46;;;5.18;81.30
24336;BME280;75016;52.400;16.880;2023-12-22T01:26:47;97272.66;;;5.18;81.42
24336;BME280;75016;52.400;16.880;2023-12-22T01:29:13;97290.80;;;5.21;82.64
24336;BME280;75016;52.400;16.880;2023-12-22T01:31:40;97287.63;;;5.22;82.80
24336;BME280;75016;52.400;16.880;2023-12-22T01:34:06;97282.23;;;5.15;82.06
24336;BME280;75016;52.400;16.880;2023-12-22T01:36:34;97282.14;;;5.13;83.02
24336;BME280;75016;52.400;16.880;2023-12-22T01:39:00;97285.36;;;5.14;84.09
24336;BME280;75016;52.400;16.880;2023-12-22T01:41:27;97274.69;;;5.15;84.22
24336;BME280;75016;52.400;16.880;2023-12-22T01:43:54;97277.41;;;5.11;84.54
24336;BME280;75016;52.400;16.880;2023-12-22T01:46:21;97275.95;;;5.04;84.10
24336;BME280;75016;52.400;16.880;2023-12-22T01:48:47;97287.48;;;4.96;83.62
24336;BME280;75016;52.400;16.880;2023-12-22T01:51:14;97283.48;;;4.88;84.31
24336;BME280;75016;52.400;16.880;2023-12-22T01:53:41;97283.98;;;4.85;84.12
24336;BME280;75016;52.400;16.880;2023-12-22T01:56:08;97278.20;;;4.83;84.76
24336;BME280;75016;52.400;16.880;2023-12-22T01:58:36;97284.49;;;4.84;85.01
24336;BME280;75016;52.400;16.880;2023-12-22T02:01:04;97288.25;;;4.80;84.49
24336;BME280;75016;52.400;16.880;2023-12-22T02:03:31;97298.73;;;4.71;84.14
24336;BME280;75016;52.400;16.880;2023-12-22T02:05:58;97295.14;;;4.71;84.90
24336;BME280;75016;52.400;16.880;2023-12-22T02:08:25;97296.77;;;4.72;84.68
24336;BME280;75016;52.400;16.880;2023-12-22T02:10:52;97290.48;;;4.73;84.32
24336;BME280;75016;52.400;16.880;2023-12-22T02:13:19;97290.45;;;4.73;84.25
24336;BME280;75016;52.400;16.880;2023-12-22T02:15:47;97302.14;;;4.74;84.16
24336;BME280;75016;52.400;16.880;2023-12-22T02:18:22;97296.64;;;4.79;84.73
24336;BME280;75016;52.400;16.880;2023-12-22T02:20:52;97301.77;;;4.79;83.49
24336;BME280;75016;52.400;16.880;2023-12-22T02:23:19;97307.59;;;4.77;82.20
24336;BME280;75016;52.400;16.880;2023-12-22T02:25:45;97296.29;;;4.79;83.15
24336;BME280;75016;52.400;16.880;2023-12-22T02:28:15;97305.95;;;4.82;83.19
24336;BME280;75016;52.400;16.880;2023-12-22T02:30:54;97308.02;;;4.82;82.33
24336;BME280;75016;52.400;16.880;2023-12-22T02:33:23;97297.61;;;4.86;82.83
24336;BME280;75016;52.400;16.880;2023-12-22T02:35:51;97312.61;;;4.87;82.05
24336;BME280;75016;52.400;16.880;2023-12-22T02:38:20;97308.95;;;4.87;81.68
24336;BME280;75016;52.400;16.880;2023-12-22T02:40:47;97309.21;;;4.88;81.56
24336;BME280;75016;52.400;16.880;2023-12-22T02:43:13;97313.51;;;4.94;82.29
24336;BME280;75016;52.400;16.880;2023-12-22T02:45:40;97319.39;;;4.93;79.62
24336;BME280;75016;52.400;16.880;2023-12-22T02:48:06;97320.92;;;4.93;78.35
24336;BME280;75016;52.400;16.880;2023-12-22T02:50:33;97314.37;;;4.92;76.50
24336;BME280;75016;52.400;16.880;2023-12-22T02:53:00;97319.51;;;4.92;76.36
24336;BME280;75016;52.400;16.880;2023-12-22T02:55:26;97318.91;;;4.92;76.73
24336;BME280;75016;52.400;16.880;2023-12-22T02:57:53;97321.69;;;4.93;75.60
24336;BME280;75016;52.400;16.880;2023-12-22T03:00:19;97332.46;;;4.92;74.82
24336;BME280;75016;52.400;16.880;2023-12-22T03:02:46;97344.62;;;4.90;72.83
24336;BME280;75016;52.400;16.880;2023-12-22T03:05:12;97341.96;;;4.85;71.57
24336;BME280;75016;52.400;16.880;2023-12-22T03:07:39;97340.70;;;4.86;72.83
24336;BME280;75016;52.400;16.880;2023-12-22T03:10:06;97352.58;;;4.88;73.28
24336;BME280;75016;52.400;16.880;2023-12-22T03:12:32;97359.71;;;4.84;71.61
24336;BME280;75016;52.400;16.880;2023-12-22T03:14:59;97357.83;;;4.85;71.72
24336;BME280;75016;52.400;16.880;2023-12-22T03:17:25;97358.27;;;4.86;71.79
24336;BME280;75016;52.400;16.880;2023-12-22T03:19:52;97354.07;;;4.89;71.26
24336;BME280;75016;52.400;16.880;2023-12-22T03:22:18;97355.22;;;4.91;72.05
24336;BME280;75016;52.400;16.880;2023-12-22T03:24:44;97352.20;;;4.90;71.23
24336;BME280;75016;52.400;16.880;2023-12-22T03:27:11;97357.29;;;4.85;69.90
24336;BME280;75016;52.400;16.880;2023-12-22T03:29:43;97366.29;;;4.81;69.42
24336;BME280;75016;52.400;16.880;2023-12-22T03:32:09;97360.30;;;4.78;67.85
24336;BME280;75016;52.400;16.880;2023-12-22T03:34:36;97359.79;;;4.76;68.67
24336;BME280;75016;52.400;16.880;2023-12-22T03:37:02;97360.64;;;4.74;68.67
24336;BME280;75016;52.400;16.880;2023-12-22T03:39:29;97366.71;;;4.75;69.91
24336;BME280;75016;52.400;16.880;2023-12-22T03:41:55;97369.11;;;4.76;69.42
24336;BME280;75016;52.400;16.880;2023-12-22T03:44:22;97363.79;;;4.77;70.61
24336;BME280;75016;52.400;16.880;2023-12-22T03:46:48;97364.57;;;4.74;69.88
24336;BME280;75016;52.400;16.880;2023-12-22T03:49:15;97363.00;;;4.70;68.61
24336;BME280;75016;52.400;16.880;2023-12-22T03:51:42;97362.94;;;4.64;67.53
24336;BME280;75016;52.400;16.880;2023-12-22T03:54:09;97364.38;;;4.62;68.04
24336;BME280;75016;52.400;16.880;2023-12-22T03:56:36;97367.58;;;4.65;67.05
24336;BME280;75016;52.400;16.880;2023-12-22T03:59:03;97379.40;;;4.68;67.47
24336;BME280;75016;52.400;16.880;2023-12-22T04:01:29;97375.30;;;4.67;65.85
24336;BME280;75016;52.400;16.880;2023-12-22T04:03:55;97374.96;;;4.63;65.75
24336;BME280;75016;52.400;16.880;2023-12-22T04:06:22;97385.30;;;4.62;66.72
24336;BME280;75016;52.400;16.880;2023-12-22T04:08:48;97380.58;;;4.60;66.66
24336;BME280;75016;52.400;16.880;2023-12-22T04:11:15;97385.58;;;4.57;67.23
24336;BME280;75016;52.400;16.880;2023-12-22T04:13:41;97388.02;;;4.58;68.00
24336;BME280;75016;52.400;16.880;2023-12-22T04:16:08;97393.98;;;4.58;68.14
24336;BME280;75016;52.400;16.880;2023-12-22T04:18:35;97402.88;;;4.60;69.47
24336;BME280;75016;52.400;16.880;2023-12-22T04:21:01;97411.23;;;4.66;69.05
24336;BME280;75016;52.400;16.880;2023-12-22T04:23:28;97421.75;;;4.66;68.66
24336;BME280;75016;52.400;16.880;2023-12-22T04:25:55;97430.18;;;4.68;69.35
24336;BME280;75016;52.400;16.880;2023-12-22T04:28:21;97430.50;;;4.65;68.97
24336;BME280;75016;52.400;16.880;2023-12-22T04:30:48;97418.05;;;4.53;69.47
24336;BME280;75016;52.400;16.880;2023-12-22T04:33:15;97408.48;;;4.37;68.85
24336;BME280;75016;52.400;16.880;2023-12-22T04:35:41;97408.88;;;4.34;70.10
24336;BME280;75016;52.400;16.880;2023-12-22T04:38:08;97405.32;;;4.34;69.67
24336;BME280;75016;52.400;16.880;2023-12-22T04:40:34;97402.81;;;4.35;68.02
24336;BME280;75016;52.400;16.880;2023-12-22T04:43:02;97406.74;;;4.31;67.18
24336;BME280;75016;52.400;16.880;2023-12-22T04:45:28;97409.77;;;4.30;67.92
24336;BME280;75016;52.400;16.880;2023-12-22T04:47:55;97405.16;;;4.25;66.14
24336;BME280;75016;52.400;16.880;2023-12-22T04:50:21;97408.76;;;4.21;65.70
24336;BME280;75016;52.400;16.880;2023-12-22T04:52:48;97406.06;;;4.15;65.84
24336;BME280;75016;52.400;16.880;2023-12-22T04:55:14;97412.44;;;4.14;66.59
24336;BME280;75016;52.400;16.880;2023-12-22T04:57:41;97420.20;;;4.14;66.70
24336;BME280;75016;52.400;16.880;2023-12-22T05:00:08;97420.98;;;4.12;67.23
24336;BME280;75016;52.400;16.880;2023-12-22T05:02:35;97418.96;;;4.14;68.82
24336;BME280;75016;52.400;16.880;2023-12-22T05:05:01;97422.98;;;4.17;69.52
24336;BME280;75016;52.400;16.880;2023-12-22T05:07:29;97420.63;;;4.13;70.06
24336;BME280;75016;52.400;16.880;2023-12-22T05:09:56;97419.20;;;4.08;70.77
24336;BME280;75016;52.400;16.880;2023-12-22T05:12:23;97424.05;;;4.05;71.82
24336;BME280;75016;52.400;16.880;2023-12-22T05:14:49;97424.57;;;4.00;72.49
24336;BME280;75016;52.400;16.880;2023-12-22T05:17:16;97436.05;;;3.99;73.35
24336;BME280;75016;52.400;16.880;2023-12-22T05:19:42;97433.22;;;3.98;73.95
24336;BME280;75016;52.400;16.880;2023-12-22T05:22:09;97437.02;;;3.98;74.64
24336;BME280;75016;52.400;16.880;2023-12-22T05:24:37;97442.67;;;3.96;75.00
24336;BME280;75016;52.400;16.880;2023-12-22T05:27:04;97440.54;;;3.96;75.48
24336;BME280;75016;52.400;16.880;2023-12-22T05:29:31;97442.96;;;3.95;75.91
24336;BME280;75016;52.400;16.880;2023-12-22T05:31:57;97446.68;;;3.94;76.30
24336;BME280;75016;52.400;16.880;2023-12-22T05:34:24;97441.67;;;3.97;76.65
24336;BME280;75016;52.400;16.880;2023-12-22T05:36:50;97442.20;;;3.97;76.58
24336;BME280;75016;52.400;16.880;2023-12-22T05:39:17;97442.21;;;3.99;76.65
24336;BME280;75016;52.400;16.880;2023-12-22T05:41:43;97463.76;;;3.94;76.35
24336;BME280;75016;52.400;16.880;2023-12-22T05:44:10;97460.85;;;3.89;76.32
24336;BME280;75016;52.400;16.880;2023-12-22T05:46:37;97453.76;;;3.87;76.84
24336;BME280;75016;52.400;16.880;2023-12-22T05:49:07;97457.36;;;3.81;76.72
24336;BME280;75016;52.400;16.880;2023-12-22T05:51:39;97445.48;;;3.80;77.49
24336;BME280;75016;52.400;16.880;2023-12-22T05:54:10;97444.22;;;3.84;77.71
24336;BME280;75016;52.400;16.880;2023-12-22T05:56:37;97437.85;;;3.85;77.65
24336;BME280;75016;52.400;16.880;2023-12-22T05:59:04;97435.44;;;3.79;77.80
24336;BME280;75016;52.400;16.880;2023-12-22T06:01:32;97432.95;;;3.75;77.09
24336;BME280;75016;52.400;16.880;2023-12-22T06:03:58;97418.45;;;3.71;77.00
24336;BME280;75016;52.400;16.880;2023-12-22T06:06:25;97414.81;;;3.67;76.59
24336;BME280;75016;52.400;16.880;2023-12-22T06:08:53;97421.92;;;3.60;76.41
24336;BME280;75016;52.400;16.880;2023-12-22T06:11:19;97416.45;;;3.56;76.05
24336;BME280;75016;52.400;16.880;2023-12-22T06:13:46;97426.27;;;3.54;75.63
24336;BME280;75016;52.400;16.880;2023-12-22T06:16:13;97431.60;;;3.57;75.78
24336;BME280;75016;52.400;16.880;2023-12-22T06:18:41;97427.33;;;3.57;75.23
24336;BME280;75016;52.400;16.880;2023-12-22T06:21:09;97418.57;;;3.56;75.28
24336;BME280;75016;52.400;16.880;2023-12-22T06:23:36;97415.27;;;3.57;75.09
24336;BME280;75016;52.400;16.880;2023-12-22T06:26:10;97419.81;;;3.55;74.30
24336;BME280;75016;52.400;16.880;2023-12-22T06:28:37;97407.30;;;3.56;74.62
24336;BME280;75016;52.400;16.880;2023-12-22T06:31:06;97418.79;;;3.58;74.56
24336;BME280;75016;52.400;16.880;2023-12-22T06:33:33;97420.59;;;3.58;74.56
24336;BME280;75016;52.400;16.880;2023-12-22T06:35:59;97415.60;;;3.57;74.81
24336;BME280;75016;52.400;16.880;2023-12-22T06:38:26;97410.11;;;3.61;75.22
24336;BME280;75016;52.400;16.880;2023-12-22T06:40:52;97420.11;;;3.68;75.78
24336;BME280;75016;52.400;16.880;2023-12-22T06:43:19;97414.83;;;3.69;75.80
24336;BME280;75016;52.400;16.880;2023-12-22T06:45:45;97414.69;;;3.72;76.48
24336;BME280;75016;52.400;16.880;2023-12-22T06:48:12;97415.24;;;3.75;76.96
24336;BME280;75016;52.400;16.880;2023-12-22T06:50:38;97417.41;;;3.76;76.85
24336;BME280;75016;52.400;16.880;2023-12-22T06:53:06;97404.58;;;3.73;76.87
24336;BME280;75016;52.400;16.880;2023-12-22T06:55:33;97408.28;;;3.76;77.29
24336;BME280;75016;52.400;16.880;2023-12-22T06:58:00;97407.70;;;3.81;77.53
24336;BME280;75016;52.400;16.880;2023-12-22T07:00:27;97409.77;;;3.85;77.93
24336;BME280;75016;52.400;16.880;2023-12-22T07:02:53;97413.18;;;3.89;77.40
24336;BME280;75016;52.400;16.880;2023-12-22T07:07:49;97395.29;;;3.85;76.79
24336;BME280;75016;52.400;16.880;2023-12-22T07:10:16;97391.29;;;3.82;76.46
24336;BME280;75016;52.400;16.880;2023-12-22T07:12:43;97383.77;;;3.80;76.90
24336;BME280;75016;52.400;16.880;2023-12-22T07:15:09;97369.84;;;3.84;77.64
24336;BME280;75016;52.400;16.880;2023-12-22T07:17:37;97365.46;;;3.84;77.94
24336;BME280;75016;52.400;16.880;2023-12-22T07:20:04;97366.11;;;3.88;78.38
24336;BME280;75016;52.400;16.880;2023-12-22T07:22:31;97381.80;;;3.85;78.20
24336;BME280;75016;52.400;16.880;2023-12-22T07:24:57;97365.45;;;3.80;78.38
24336;BME280;75016;52.400;16.880;2023-12-22T07:27:24;97380.58;;;3.78;78.66
24336;BME280;75016;52.400;16.880;2023-12-22T07:29:50;97369.40;;;3.74;78.97
24336;BME280;75016;52.400;16.880;2023-12-22T07:32:17;97379.04;;;3.74;79.12
24336;BME280;75016;52.400;16.880;2023-12-22T07:34:43;97387.55;;;3.71;79.26
24336;BME280;75016;52.400;16.880;2023-12-22T07:37:10;97380.55;;;3.71;79.59
24336;BME280;75016;52.400;16.880;2023-12-22T07:39:37;97390.33;;;3.77;79.66
24336;BME280;75016;52.400;16.880;2023-12-22T07:42:04;97407.16;;;3.75;79.15
24336;BME280;75016;52.400;16.880;2023-12-22T07:44:30;97404.19;;;3.73;78.74
24336;BME280;75016;52.400;16.880;2023-12-22T07:46:58;97399.73;;;3.76;79.14
24336;BME280;75016;52.400;16.880;2023-12-22T07:49:26;97419.00;;;3.76;78.11
24336;BME280;75016;52.400;16.880;2023-12-22T07:51:53;97409.98;;;3.73;76.84
24336;BME280;75016;52.400;16.880;2023-12-22T07:54:19;97418.44;;;3.73;76.28
24336;BME280;75016;52.400;16.880;2023-12-22T07:56:46;97415.77;;;3.71;75.77
24336;BME280;75016;52.400;16.880;2023-12-22T07:59:13;97411.85;;;3.70;74.95
24336;BME280;75016;52.400;16.880;2023-12-22T08:01:40;97424.23;;;3.66;73.65
24336;BME280;75016;52.400;16.880;2023-12-22T08:04:06;97414.71;;;3.63;73.37
24336;BME280;75016;52.400;16.880;2023-12-22T08:06:33;97403.25;;;3.56;73.76
24336;BME280;75016;52.400;16.880;2023-12-22T08:08:59;97410.92;;;3.51;74.85
24336;BME280;75016;52.400;16.880;2023-12-22T08:11:26;97434.11;;;3.42;75.36
24336;BME280;75016;52.400;16.880;2023-12-22T08:13:52;97423.94;;;3.35;76.27
24336;BME280;75016;52.400;16.880;2023-12-22T08:16:20;97433.56;;;3.35;77.26
24336;BME280;75016;52.400;16.880;2023-12-22T08:18:46;97428.91;;;3.34;77.93
24336;BME280;75016;52.400;16.880;2023-12-22T08:21:13;97443.70;;;3.39;78.38
24336;BME280;75016;52.400;16.880;2023-12-22T08:23:40;97464.11;;;3.39;78.68
24336;BME280;75016;52.400;16.880;2023-12-22T08:26:07;97454.04;;;3.35;81.68
24336;BME280;75016;52.400;16.880;2023-12-22T08:28:33;97432.19;;;3.29;86.34
24336;BME280;75016;52.400;16.880;2023-12-22T08:31:00;97431.13;;;3.22;87.88
24336;BME280;75016;52.400;16.880;2023-12-22T08:33:26;97414.23;;;3.10;88.66
24336;BME280;75016;52.400;16.880;2023-12-22T08:35:53;97390.64;;;3.02;89.53
24336;BME280;75016;52.400;16.880;2023-12-22T08:38:20;97389.90;;;2.99;90.12
24336;BME280;75016;52.400;16.880;2023-12-22T08:40:46;97384.73;;;2.98;90.30
24336;BME280;75016;52.400;16.880;2023-12-22T08:43:13;97407.63;;;3.05;90.13
24336;BME280;75016;52.400;16.880;2023-12-22T08:45:40;97428.48;;;3.11;88.59
24336;BME280;75016;52.400;16.880;2023-12-22T08:48:07;97449.84;;;3.20;88.33
24336;BME280;75016;52.400;16.880;2023-12-22T08:50:34;97468.04;;;3.32;86.36
24336;BME280;75016;52.400;16.880;2023-12-22T08:53:01;97451.80;;;3.40;85.15
24336;BME280;75016;52.400;16.880;2023-12-22T08:55:28;97456.36;;;3.47;84.65
24336;BME280;75016;52.400;16.880;2023-12-22T08:57:54;97449.03;;;3.54;84.89
24336;BME280;75016;52.400;16.880;2023-12-22T09:00:21;97443.55;;;3.60;85.44
24336;BME280;75016;52.400;16.880;2023-12-22T09:02:48;97449.70;;;3.74;85.83
24336;BME280;75016;52.400;16.880;2023-12-22T09:05:14;97457.90;;;3.82;85.46
24336;BME280;75016;52.400;16.880;2023-12-22T09:07:41;97464.97;;;3.87;84.99
24336;BME280;75016;52.400;16.880;2023-12-22T09:10:08;97450.61;;;3.86;84.80
24336;BME280;75016;52.400;16.880;2023-12-22T09:12:34;97461.73;;;3.77;83.68
24336;BME280;75016;52.400;16.880;2023-12-22T09:15:01;97460.86;;;3.64;83.74
24336;BME280;75016;52.400;16.880;2023-12-22T09:17:29;97464.64;;;3.52;83.73
24336;BME280;75016;52.400;16.880;2023-12-22T09:19:55;97457.46;;;3.45;83.93
24336;BME280;75016;52.400;16.880;2023-12-22T09:22:22;97454.99;;;3.45;84.24
24336;BME280;75016;52.400;16.880;2023-12-22T09:24:49;97452.52;;;3.41;84.52
24336;BME280;75016;52.400;16.880;2023-12-22T09:27:15;97459.96;;;3.42;84.06
24336;BME280;75016;52.400;16.880;2023-12-22T09:29:42;97450.35;;;3.40;83.21
24336;BME280;75016;52.400;16.880;2023-12-22T09:32:09;97442.75;;;3.43;83.42
24336;BME280;75016;52.400;16.880;2023-12-22T09:34:35;97451.46;;;3.43;83.11
24336;BME280;75016;52.400;16.880;2023-12-22T09:37:02;97433.92;;;3.49;83.53
24336;BME280;75016;52.400;16.880;2023-12-22T09:39:29;97437.80;;;3.60;83.50
24336;BME280;75016;52.400;16.880;2023-12-22T09:41:56;97439.84;;;3.66;82.87
24336;BME280;75016;52.400;16.880;2023-12-22T09:44:24;97449.17;;;3.66;81.64
24336;BME280;75016;52.400;16.880;2023-12-22T09:46:51;97434.20;;;3.68;81.90
24336;BME280;75016;52.400;16.880;2023-12-22T09:49:18;97442.17;;;3.70;81.89
24336;BME280;75016;52.400;16.880;2023-12-22T09:51:47;97438.42;;;3.75;81.60
24336;BME280;75016;52.400;16.880;2023-12-22T09:54:14;97441.93;;;3.77;80.99
24336;BME280;75016;52.400;16.880;2023-12-22T09:56:41;97437.62;;;3.80;80.85
24336;BME280;75016;52.400;16.880;2023-12-22T09:59:12;97443.27;;;3.88;80.80
24336;BME280;75016;52.400;16.880;2023-12-22T10:01:44;97431.88;;;3.93;80.72
24336;BME280;75016;52.400;16.880;2023-12-22T10:04:14;97448.98;;;4.03;80.84
24336;BME280;75016;52.400;16.880;2023-12-22T10:06:41;97440.75;;;4.06;80.03
24336;BME280;75016;52.400;16.880;2023-12-22T10:09:08;97436.42;;;4.13;80.13
24336;BME280;75016;52.400;16.880;2023-12-22T10:11:37;97431.45;;;4.19;79.19
24336;BME280;75016;52.400;16.880;2023-12-22T10:14:06;97437.69;;;4.15;77.74
24336;BME280;75016;52.400;16.880;2023-12-22T10:16:32;97441.38;;;4.14;77.91
24336;BME280;75016;52.400;16.880;2023-12-22T10:18:59;97442.11;;;4.08;77.15
24336;BME280;75016;52.400;16.880;2023-12-22T10:21:26;97441.31;;;4.11;77.79
24336;BME280;75016;52.400;16.880;2023-12-22T10:23:53;97434.20;;;4.16;77.90
24336;BME280;75016;52.400;16.880;2023-12-22T10:26:19;97439.23;;;4.17;77.33
24336;BME280;75016;52.400;16.880;2023-12-22T10:28:50;97444.33;;;4.15;76.85
24336;BME280;75016;52.400;16.880;2023-12-22T10:31:17;97440.35;;;4.11;76.61
24336;BME280;75016;52.400;16.880;2023-12-22T10:33:43;97439.95;;;4.11;76.02
24336;BME280;75016;52.400;16.880;2023-12-22T10:36:10;97450.67;;;4.09;75.17
24336;BME280;75016;52.400;16.880;2023-12-22T10:38:37;97454.45;;;4.08;75.32
24336;BME280;75016;52.400;16.880;2023-12-22T10:41:06;97446.83;;;4.11;75.37
24336;BME280;75016;52.400;16.880;2023-12-22T10:43:40;97444.61;;;4.16;75.81
24336;BME280;75016;52.400;16.880;2023-12-22T10:46:07;97452.73;;;4.22;75.61
24336;BME280;75016;52.400;16.880;2023-12-22T10:48:37;97460.13;;;4.24;74.91
24336;BME280;75016;52.400;16.880;2023-12-22T10:51:09;97462.58;;;4.22;74.61
24336;BME280;75016;52.400;16.880;2023-12-22T10:53:36;97455.54;;;4.27;75.43
24336;BME280;75016;52.400;16.880;2023-12-22T10:56:02;97455.36;;;4.25;74.16
24336;BME280;75016;52.400;16.880;2023-12-22T10:58:29;97451.44;;;4.19;73.34
24336;BME280;75016;52.400;16.880;2023-12-22T11:00:56;97463.13;;;4.16;73.20
24336;BME280;75016;52.400;16.880;2023-12-22T11:03:23;97454.36;;;4.22;74.29
24336;BME280;75016;52.400;16.880;2023-12-22T11:05:54;97462.00;;;4.34;74.69
24336;BME280;75016;52.400;16.880;2023-12-22T11:08:23;97465.73;;;4.37;73.61
24336;BME280;75016;52.400;16.880;2023-12-22T11:10:56;97475.90;;;4.41;73.19
24336;BME280;75016;52.400;16.880;2023-12-22T11:13:25;97459.09;;;4.37;71.82
24336;BME280;75016;52.400;16.880;2023-12-22T11:15:52;97455.37;;;4.41;71.98
24336;BME280;75016;52.400;16.880;2023-12-22T11:18:19;97464.14;;;4.43;71.53
24336;BME280;75016;52.400;16.880;2023-12-22T11:20:47;97465.74;;;4.43;70.84
24336;BME280;75016;52.400;16.880;2023-12-22T11:23:15;97452.40;;;4.47;71.69
24336;BME280;75016;52.400;16.880;2023-12-22T11:25:42;97452.15;;;4.54;71.80
24336;BME280;75016;52.400;16.880;2023-12-22T11:28:11;97461.31;;;4.56;71.50
24336;BME280;75016;52.400;16.880;2023-12-22T11:30:38;97476.91;;;4.53;70.48
24336;BME280;75016;52.400;16.880;2023-12-22T11:33:05;97464.20;;;4.50;70.51
24336;BME280;75016;52.400;16.880;2023-12-22T11:35:32;97465.13;;;4.49;70.71
24336;BME280;75016;52.400;16.880;2023-12-22T11:38:00;97467.97;;;4.51;71.36
24336;BME280;75016;52.400;16.880;2023-12-22T11:40:28;97485.67;;;4.53;70.86
24336;BME280;75016;52.400;16.880;2023-12-22T11:42:55;97473.09;;;4.47;70.57
24336;BME280;75016;52.400;16.880;2023-12-22T11:45:22;97475.55;;;4.43;71.34
24336;BME280;75016;52.400;16.880;2023-12-22T11:47:50;97480.26;;;4.47;71.49
24336;BME280;75016;52.400;16.880;2023-12-22T11:50:29;97487.67;;;4.45;71.26
24336;BME280;75016;52.400;16.880;2023-12-22T11:52:56;97499.70;;;4.48;72.27
24336;BME280;75016;52.400;16.880;2023-12-22T11:58:36;97517.66;;;4.40;72.55
24336;BME280;75016;52.400;16.880;2023-12-22T12:01:06;97507.23;;;4.28;72.83
24336;BME280;75016;52.400;16.880;2023-12-22T12:03:36;97502.95;;;4.20;73.67
24336;BME280;75016;52.400;16.880;2023-12-22T12:06:22;97504.16;;;4.24;74.49
24336;BME280;75016;52.400;16.880;2023-12-22T12:08:49;97507.69;;;4.25;74.48
24336;BME280;75016;52.400;16.880;2023-12-22T12:11:17;97502.69;;;4.24;74.33
24336;BME280;75016;52.400;16.880;2023-12-22T12:13:46;97518.60;;;4.27;74.32
24336;BME280;75016;52.400;16.880;2023-12-22T12:16:14;97516.15;;;4.21;73.16
24336;BME280;75016;52.400;16.880;2023-12-22T12:18:41;97521.10;;;4.21;72.82
24336;BME280;75016;52.400;16.880;2023-12-22T12:21:10;97523.16;;;4.23;73.08
24336;BME280;75016;52.400;16.880;2023-12-22T12:23:37;97523.75;;;4.24;73.36
24336;BME280;75016;52.400;16.880;2023-12-22T12:26:07;97527.73;;;4.25;72.75
24336;BME280;75016;52.400;16.880;2023-12-22T12:28:35;97509.77;;;4.22;72.58
24336;BME280;75016;52.400;16.880;2023-12-22T12:31:04;97526.44;;;4.22;72.02
24336;BME280;75016;52.400;16.880;2023-12-22T12:33:32;97522.66;;;4.21;70.96
24336;BME280;75016;52.400;16.880;2023-12-22T12:36:00;97529.55;;;4.21;70.64
24336;BME280;75016;52.400;16.880;2023-12-22T12:38:48;97528.39;;;4.24;70.76
24336;BME280;75016;52.400;16.880;2023-12-22T12:41:24;97525.77;;;4.22;69.51
24336;BME280;75016;52.400;16.880;2023-12-22T12:43:56;97527.68;;;4.24;69.51
24336;BME280;75016;52.400;16.880;2023-12-22T12:46:22;97530.66;;;4.24;68.81
24336;BME280;75016;52.400;16.880;2023-12-22T12:49:05;97529.20;;;4.23;68.17
24336;BME280;75016;52.400;16.880;2023-12-22T12:51:36;97525.63;;;4.23;68.27
24336;BME280;75016;52.400;16.880;2023-12-22T12:54:04;97523.72;;;4.25;68.17
24336;BME280;75016;52.400;16.880;2023-12-22T12:56:38;97517.48;;;4.27;68.36
24336;BME280;75016;52.400;16.880;2023-12-22T12:59:16;97532.48;;;4.32;68.13
24336;BME280;75016;52.400;16.880;2023-12-22T13:01:45;97530.37;;;4.30;66.83
24336;BME280;75016;52.400;16.880;2023-12-22T13:04:13;97535.73;;;4.29;66.24
24336;BME280;75016;52.400;16.880;2023-12-22T13:06:46;97541.60;;;4.29;66.25